sensor_id;sensor_type;location;lat;lon;timestamp;P1;durP1;ratioP1;P2;durP2;ratioP2
6452;SDS011;3259;51.080;13.712;2023-06-14T00:01:20;1.75;;;1.20;;
6452;SDS011;3259;51.080;13.712;2023-06-14T00:04:09;1.63;;;1.23;;
6452;SDS011;3259;51.080;13.712;2023-06-14T00:06:58;3.10;;;2.22;;
6452;SDS011;3259;51.080;13.712;2023-06-14T00:09:48;3.10;;;1.63;;
6452;SDS011;3259;51.080;13.712;2023-06-14T00:12:37;1.98;;;1.52;;
6452;SDS011;3259;51.080;13.712;2023-06-14T00:15:26;1.50;;;1.13;;
6452;SDS011;3259;51.080;13.712;2023-06-14T00:18:15;2.90;;;1.20;;
6452;SDS011;3259;51.080;13.712;2023-06-14T00:21:04;4.03;;;1.90;;
6452;SDS011;3259;51.080;13.712;2023-06-14T00:23:53;5.32;;;1.42;;
6452;SDS011;3259;51.080;13.712;2023-06-14T00:26:43;1.60;;;1.48;;
6452;SDS011;3259;51.080;13.712;2023-06-14T00:29:32;2.55;;;1.20;;
6452;SDS011;3259;51.080;13.712;2023-06-14T00:32:20;6.57;;;1.58;;
6452;SDS011;3259;51.080;13.712;2023-06-14T00:35:12;2.08;;;1.13;;
6452;SDS011;3259;51.080;13.712;2023-06-14T00:38:01;1.88;;;1.30;;
6452;SDS011;3259;51.080;13.712;2023-06-14T00:40:50;1.35;;;1.25;;
6452;SDS011;3259;51.080;13.712;2023-06-14T00:43:40;3.72;;;1.48;;
6452;SDS011;3259;51.080;13.712;2023-06-14T00:46:29;1.25;;;1.23;;
6452;SDS011;3259;51.080;13.712;2023-06-14T00:49:18;2.58;;;1.30;;
6452;SDS011;3259;51.080;13.712;2023-06-14T00:52:08;1.40;;;1.30;;
6452;SDS011;3259;51.080;13.712;2023-06-14T00:54:59;2.58;;;1.02;;
6452;SDS011;3259;51.080;13.712;2023-06-14T00:57:47;5.18;;;1.27;;
6452;SDS011;3259;51.080;13.712;2023-06-14T01:00:39;2.22;;;1.65;;
6452;SDS011;3259;51.080;13.712;2023-06-14T01:03:27;1.17;;;1.02;;
6452;SDS011;3259;51.080;13.712;2023-06-14T01:06:20;4.30;;;1.65;;
6452;SDS011;3259;51.080;13.712;2023-06-14T01:09:18;1.88;;;1.70;;
6452;SDS011;3259;51.080;13.712;2023-06-14T01:12:11;2.03;;;1.92;;
6452;SDS011;3259;51.080;13.712;2023-06-14T01:15:06;2.20;;;2.10;;
6452;SDS011;3259;51.080;13.712;2023-06-14T01:17:57;2.20;;;1.75;;
6452;SDS011;3259;51.080;13.712;2023-06-14T01:20:50;3.78;;;1.50;;
6452;SDS011;3259;51.080;13.712;2023-06-14T01:23:43;1.77;;;1.25;;
6452;SDS011;3259;51.080;13.712;2023-06-14T01:26:32;2.45;;;1.40;;
6452;SDS011;3259;51.080;13.712;2023-06-14T01:29:22;1.20;;;1.20;;
6452;SDS011;3259;51.080;13.712;2023-06-14T01:32:12;1.23;;;1.10;;
6452;SDS011;3259;51.080;13.712;2023-06-14T01:35:01;1.95;;;1.23;;
6452;SDS011;3259;51.080;13.712;2023-06-14T01:37:50;1.88;;;1.40;;
6452;SDS011;3259;51.080;13.712;2023-06-14T01:40:41;1.35;;;1.25;;
6452;SDS011;3259;51.080;13.712;2023-06-14T01:43:31;4.90;;;1.83;;
6452;SDS011;3259;51.080;13.712;2023-06-14T01:46:22;1.25;;;1.15;;
6452;SDS011;3259;51.080;13.712;2023-06-14T01:49:11;1.67;;;1.38;;
6452;SDS011;3259;51.080;13.712;2023-06-14T01:52:00;1.65;;;1.15;;
6452;SDS011;3259;51.080;13.712;2023-06-14T01:54:49;1.70;;;1.48;;
6452;SDS011;3259;51.080;13.712;2023-06-14T01:57:39;1.50;;;1.40;;
6452;SDS011;3259;51.080;13.712;2023-06-14T02:00:28;1.40;;;1.30;;
6452;SDS011;3259;51.080;13.712;2023-06-14T02:03:16;3.85;;;1.45;;
6452;SDS011;3259;51.080;13.712;2023-06-14T02:06:06;1.35;;;1.30;;
6452;SDS011;3259;51.080;13.712;2023-06-14T02:08:58;1.45;;;1.25;;
6452;SDS011;3259;51.080;13.712;2023-06-14T02:11:46;1.50;;;1.40;;
6452;SDS011;3259;51.080;13.712;2023-06-14T02:14:36;1.52;;;1.42;;
6452;SDS011;3259;51.080;13.712;2023-06-14T02:17:25;2.47;;;1.30;;
6452;SDS011;3259;51.080;13.712;2023-06-14T02:20:14;4.88;;;1.10;;
6452;SDS011;3259;51.080;13.712;2023-06-14T02:23:04;1.23;;;1.23;;
6452;SDS011;3259;51.080;13.712;2023-06-14T02:25:54;1.35;;;1.27;;
6452;SDS011;3259;51.080;13.712;2023-06-14T02:28:43;1.65;;;1.40;;
6452;SDS011;3259;51.080;13.712;2023-06-14T02:31:33;2.70;;;1.73;;
6452;SDS011;3259;51.080;13.712;2023-06-14T02:34:22;1.70;;;1.60;;
6452;SDS011;3259;51.080;13.712;2023-06-14T02:37:11;2.15;;;1.33;;
6452;SDS011;3259;51.080;13.712;2023-06-14T02:40:00;1.73;;;1.63;;
6452;SDS011;3259;51.080;13.712;2023-06-14T02:42:49;1.52;;;1.42;;
6452;SDS011;3259;51.080;13.712;2023-06-14T02:45:41;1.88;;;1.35;;
6452;SDS011;3259;51.080;13.712;2023-06-14T02:48:31;2.72;;;1.60;;
6452;SDS011;3259;51.080;13.712;2023-06-14T02:51:20;2.00;;;1.90;;
6452;SDS011;3259;51.080;13.712;2023-06-14T02:54:08;2.17;;;1.90;;
6452;SDS011;3259;51.080;13.712;2023-06-14T02:56:57;2.20;;;1.95;;
6452;SDS011;3259;51.080;13.712;2023-06-14T02:59:46;2.42;;;1.77;;
6452;SDS011;3259;51.080;13.712;2023-06-14T03:02:35;1.98;;;1.55;;
6452;SDS011;3259;51.080;13.712;2023-06-14T03:05:25;4.53;;;1.90;;
6452;SDS011;3259;51.080;13.712;2023-06-14T03:08:14;2.53;;;1.30;;
6452;SDS011;3259;51.080;13.712;2023-06-14T03:11:06;6.68;;;2.17;;
6452;SDS011;3259;51.080;13.712;2023-06-14T03:13:55;3.33;;;1.60;;
6452;SDS011;3259;51.080;13.712;2023-06-14T03:16:43;10.20;;;2.13;;
6452;SDS011;3259;51.080;13.712;2023-06-14T03:19:32;1.65;;;1.55;;
6452;SDS011;3259;51.080;13.712;2023-06-14T03:22:22;3.25;;;1.50;;
6452;SDS011;3259;51.080;13.712;2023-06-14T03:25:12;2.10;;;1.55;;
6452;SDS011;3259;51.080;13.712;2023-06-14T03:28:01;1.80;;;1.70;;
6452;SDS011;3259;51.080;13.712;2023-06-14T03:30:50;7.30;;;1.80;;
6452;SDS011;3259;51.080;13.712;2023-06-14T03:33:39;1.23;;;1.23;;
6452;SDS011;3259;51.080;13.712;2023-06-14T03:36:28;2.38;;;1.73;;
6452;SDS011;3259;51.080;13.712;2023-06-14T03:39:18;4.60;;;1.85;;
6452;SDS011;3259;51.080;13.712;2023-06-14T03:42:08;1.67;;;1.50;;
6452;SDS011;3259;51.080;13.712;2023-06-14T03:44:57;2.95;;;1.75;;
6452;SDS011;3259;51.080;13.712;2023-06-14T03:47:45;1.67;;;1.35;;
6452;SDS011;3259;51.080;13.712;2023-06-14T03:50:34;1.75;;;1.55;;
6452;SDS011;3259;51.080;13.712;2023-06-14T03:53:24;2.72;;;1.88;;
6452;SDS011;3259;51.080;13.712;2023-06-14T03:56:16;3.97;;;1.70;;
6452;SDS011;3259;51.080;13.712;2023-06-14T03:59:05;1.90;;;1.60;;
6452;SDS011;3259;51.080;13.712;2023-06-14T04:01:53;3.25;;;1.90;;
6452;SDS011;3259;51.080;13.712;2023-06-14T04:04:43;1.60;;;1.50;;
6452;SDS011;3259;51.080;13.712;2023-06-14T04:07:32;2.95;;;1.60;;
6452;SDS011;3259;51.080;13.712;2023-06-14T04:10:26;2.47;;;1.75;;
6452;SDS011;3259;51.080;13.712;2023-06-14T04:13:16;3.65;;;2.05;;
6452;SDS011;3259;51.080;13.712;2023-06-14T04:16:05;3.72;;;1.60;;
6452;SDS011;3259;51.080;13.712;2023-06-14T04:18:54;5.80;;;2.13;;
6452;SDS011;3259;51.080;13.712;2023-06-14T04:21:45;1.80;;;1.70;;
6452;SDS011;3259;51.080;13.712;2023-06-14T04:24:33;4.15;;;1.83;;
6452;SDS011;3259;51.080;13.712;2023-06-14T04:27:22;1.70;;;1.60;;
6452;SDS011;3259;51.080;13.712;2023-06-14T04:30:14;1.90;;;1.80;;
6452;SDS011;3259;51.080;13.712;2023-06-14T04:33:03;2.00;;;1.70;;
6452;SDS011;3259;51.080;13.712;2023-06-14T04:35:52;2.13;;;2.00;;
6452;SDS011;3259;51.080;13.712;2023-06-14T04:38:43;3.75;;;2.13;;
6452;SDS011;3259;51.080;13.712;2023-06-14T04:41:33;1.95;;;1.83;;
6452;SDS011;3259;51.080;13.712;2023-06-14T04:44:22;1.85;;;1.60;;
6452;SDS011;3259;51.080;13.712;2023-06-14T04:47:17;1.73;;;1.63;;
6452;SDS011;3259;51.080;13.712;2023-06-14T04:50:08;1.90;;;1.80;;
6452;SDS011;3259;51.080;13.712;2023-06-14T04:52:59;2.97;;;1.40;;
6452;SDS011;3259;51.080;13.712;2023-06-14T04:55:48;3.65;;;1.80;;
6452;SDS011;3259;51.080;13.712;2023-06-14T04:58:37;4.57;;;1.83;;
6452;SDS011;3259;51.080;13.712;2023-06-14T05:01:25;3.15;;;2.25;;
6452;SDS011;3259;51.080;13.712;2023-06-14T05:04:15;4.30;;;2.63;;
6452;SDS011;3259;51.080;13.712;2023-06-14T05:07:04;2.33;;;2.03;;
6452;SDS011;3259;51.080;13.712;2023-06-14T05:09:55;3.50;;;1.92;;
6452;SDS011;3259;51.080;13.712;2023-06-14T05:12:44;2.78;;;1.95;;
6452;SDS011;3259;51.080;13.712;2023-06-14T05:15:34;3.35;;;1.88;;
6452;SDS011;3259;51.080;13.712;2023-06-14T05:18:23;3.35;;;2.45;;
6452;SDS011;3259;51.080;13.712;2023-06-14T05:21:13;4.13;;;2.03;;
6452;SDS011;3259;51.080;13.712;2023-06-14T05:24:05;2.42;;;2.15;;
6452;SDS011;3259;51.080;13.712;2023-06-14T05:26:55;3.88;;;2.30;;
6452;SDS011;3259;51.080;13.712;2023-06-14T05:29:44;3.17;;;2.03;;
6452;SDS011;3259;51.080;13.712;2023-06-14T05:32:33;2.90;;;1.85;;
6452;SDS011;3259;51.080;13.712;2023-06-14T05:35:22;2.63;;;1.90;;
6452;SDS011;3259;51.080;13.712;2023-06-14T05:38:14;2.53;;;2.22;;
6452;SDS011;3259;51.080;13.712;2023-06-14T05:41:03;5.13;;;2.50;;
6452;SDS011;3259;51.080;13.712;2023-06-14T05:43:52;2.80;;;2.60;;
6452;SDS011;3259;51.080;13.712;2023-06-14T05:46:41;2.13;;;1.90;;
6452;SDS011;3259;51.080;13.712;2023-06-14T05:49:29;3.30;;;2.05;;
6452;SDS011;3259;51.080;13.712;2023-06-14T05:52:18;2.13;;;1.77;;
6452;SDS011;3259;51.080;13.712;2023-06-14T05:55:09;2.28;;;2.03;;
6452;SDS011;3259;51.080;13.712;2023-06-14T05:57:59;2.63;;;2.42;;
6452;SDS011;3259;51.080;13.712;2023-06-14T06:00:48;2.10;;;2.00;;
6452;SDS011;3259;51.080;13.712;2023-06-14T06:03:37;2.75;;;2.10;;
6452;SDS011;3259;51.080;13.712;2023-06-14T06:06:26;2.55;;;1.90;;
6452;SDS011;3259;51.080;13.712;2023-06-14T06:09:15;3.78;;;2.40;;
6452;SDS011;3259;51.080;13.712;2023-06-14T06:12:06;3.38;;;2.33;;
6452;SDS011;3259;51.080;13.712;2023-06-14T06:14:55;2.88;;;2.45;;
6452;SDS011;3259;51.080;13.712;2023-06-14T06:17:44;2.42;;;2.22;;
6452;SDS011;3259;51.080;13.712;2023-06-14T06:20:42;6.53;;;2.33;;
6452;SDS011;3259;51.080;13.712;2023-06-14T06:23:31;5.68;;;1.92;;
6452;SDS011;3259;51.080;13.712;2023-06-14T06:26:21;2.47;;;1.83;;
6452;SDS011;3259;51.080;13.712;2023-06-14T06:29:13;2.63;;;1.90;;
6452;SDS011;3259;51.080;13.712;2023-06-14T06:32:02;3.40;;;2.67;;
6452;SDS011;3259;51.080;13.712;2023-06-14T06:34:53;2.78;;;1.98;;
6452;SDS011;3259;51.080;13.712;2023-06-14T06:37:42;4.00;;;2.03;;
6452;SDS011;3259;51.080;13.712;2023-06-14T06:40:32;2.50;;;2.33;;
6452;SDS011;3259;51.080;13.712;2023-06-14T06:43:21;2.70;;;2.25;;
6452;SDS011;3259;51.080;13.712;2023-06-14T06:46:11;11.60;;;2.92;;
6452;SDS011;3259;51.080;13.712;2023-06-14T06:49:00;2.67;;;2.47;;
6452;SDS011;3259;51.080;13.712;2023-06-14T06:51:58;7.18;;;2.97;;
6452;SDS011;3259;51.080;13.712;2023-06-14T06:54:48;2.40;;;2.22;;
6452;SDS011;3259;51.080;13.712;2023-06-14T06:57:41;6.10;;;2.28;;
6452;SDS011;3259;51.080;13.712;2023-06-14T07:00:30;4.30;;;2.33;;
6452;SDS011;3259;51.080;13.712;2023-06-14T07:03:20;3.38;;;2.30;;
6452;SDS011;3259;51.080;13.712;2023-06-14T07:06:08;3.22;;;2.90;;
6452;SDS011;3259;51.080;13.712;2023-06-14T07:08:58;6.18;;;2.58;;
6452;SDS011;3259;51.080;13.712;2023-06-14T07:11:48;2.58;;;2.35;;
6452;SDS011;3259;51.080;13.712;2023-06-14T07:14:37;4.07;;;1.92;;
6452;SDS011;3259;51.080;13.712;2023-06-14T07:17:25;2.63;;;1.63;;
6452;SDS011;3259;51.080;13.712;2023-06-14T07:20:16;3.90;;;2.00;;
6452;SDS011;3259;51.080;13.712;2023-06-14T07:23:05;2.70;;;1.88;;
6452;SDS011;3259;51.080;13.712;2023-06-14T07:25:54;2.80;;;1.70;;
6452;SDS011;3259;51.080;13.712;2023-06-14T07:28:43;3.92;;;1.83;;
6452;SDS011;3259;51.080;13.712;2023-06-14T07:31:32;1.60;;;1.50;;
6452;SDS011;3259;51.080;13.712;2023-06-14T07:34:21;2.30;;;2.13;;
6452;SDS011;3259;51.080;13.712;2023-06-14T07:37:11;1.73;;;1.63;;
6452;SDS011;3259;51.080;13.712;2023-06-14T07:39:59;5.13;;;1.80;;
6452;SDS011;3259;51.080;13.712;2023-06-14T07:42:51;2.38;;;1.80;;
6452;SDS011;3259;51.080;13.712;2023-06-14T07:45:41;1.60;;;1.50;;
6452;SDS011;3259;51.080;13.712;2023-06-14T07:48:43;1.40;;;1.40;;
6452;SDS011;3259;51.080;13.712;2023-06-14T07:51:32;4.00;;;1.77;;
6452;SDS011;3259;51.080;13.712;2023-06-14T07:54:23;1.30;;;1.30;;
6452;SDS011;3259;51.080;13.712;2023-06-14T07:57:13;3.50;;;1.30;;
6452;SDS011;3259;51.080;13.712;2023-06-14T08:00:02;3.50;;;1.60;;
6452;SDS011;3259;51.080;13.712;2023-06-14T08:02:53;1.38;;;1.35;;
6452;SDS011;3259;51.080;13.712;2023-06-14T08:05:47;2.05;;;1.48;;
6452;SDS011;3259;51.080;13.712;2023-06-14T08:08:36;1.73;;;1.42;;
6452;SDS011;3259;51.080;13.712;2023-06-14T08:11:26;1.63;;;1.52;;
6452;SDS011;3259;51.080;13.712;2023-06-14T08:14:15;1.65;;;1.20;;
6452;SDS011;3259;51.080;13.712;2023-06-14T08:17:03;3.08;;;1.50;;
6452;SDS011;3259;51.080;13.712;2023-06-14T08:19:52;1.40;;;1.30;;
6452;SDS011;3259;51.080;13.712;2023-06-14T08:22:44;1.23;;;1.08;;
6452;SDS011;3259;51.080;13.712;2023-06-14T08:25:35;1.48;;;1.40;;
6452;SDS011;3259;51.080;13.712;2023-06-14T08:28:27;1.65;;;1.35;;
6452;SDS011;3259;51.080;13.712;2023-06-14T08:31:17;1.00;;;1.00;;
6452;SDS011;3259;51.080;13.712;2023-06-14T08:34:09;2.13;;;1.63;;
6452;SDS011;3259;51.080;13.712;2023-06-14T08:37:01;1.65;;;1.17;;
6452;SDS011;3259;51.080;13.712;2023-06-14T08:39:51;4.75;;;1.00;;
6452;SDS011;3259;51.080;13.712;2023-06-14T08:42:41;1.00;;;1.00;;
6452;SDS011;3259;51.080;13.712;2023-06-14T08:45:32;3.58;;;1.40;;
6452;SDS011;3259;51.080;13.712;2023-06-14T08:48:21;1.23;;;1.20;;
6452;SDS011;3259;51.080;13.712;2023-06-14T08:51:14;1.23;;;1.23;;
6452;SDS011;3259;51.080;13.712;2023-06-14T08:54:08;1.48;;;1.00;;
6452;SDS011;3259;51.080;13.712;2023-06-14T08:57:00;2.90;;;1.58;;
6452;SDS011;3259;51.080;13.712;2023-06-14T08:59:48;3.20;;;1.42;;
6452;SDS011;3259;51.080;13.712;2023-06-14T09:02:42;3.58;;;1.88;;
6452;SDS011;3259;51.080;13.712;2023-06-14T09:05:32;5.45;;;1.20;;
6452;SDS011;3259;51.080;13.712;2023-06-14T09:08:21;1.67;;;1.33;;
6452;SDS011;3259;51.080;13.712;2023-06-14T09:11:10;2.13;;;1.92;;
6452;SDS011;3259;51.080;13.712;2023-06-14T09:14:00;1.80;;;1.63;;
6452;SDS011;3259;51.080;13.712;2023-06-14T09:16:52;2.00;;;1.60;;
6452;SDS011;3259;51.080;13.712;2023-06-14T09:19:42;2.45;;;1.23;;
6452;SDS011;3259;51.080;13.712;2023-06-14T09:22:31;3.72;;;1.58;;
6452;SDS011;3259;51.080;13.712;2023-06-14T09:25:20;2.30;;;1.63;;
6452;SDS011;3259;51.080;13.712;2023-06-14T09:28:26;1.67;;;1.58;;
6452;SDS011;3259;51.080;13.712;2023-06-14T09:31:16;2.33;;;1.83;;
6452;SDS011;3259;51.080;13.712;2023-06-14T09:34:06;1.50;;;1.48;;
6452;SDS011;3259;51.080;13.712;2023-06-14T09:36:57;1.63;;;1.52;;
6452;SDS011;3259;51.080;13.712;2023-06-14T09:39:49;1.88;;;1.77;;
6452;SDS011;3259;51.080;13.712;2023-06-14T09:42:38;2.47;;;2.28;;
6452;SDS011;3259;51.080;13.712;2023-06-14T09:45:28;2.20;;;1.88;;
6452;SDS011;3259;51.080;13.712;2023-06-14T09:48:18;1.60;;;1.50;;
6452;SDS011;3259;51.080;13.712;2023-06-14T09:51:07;2.20;;;1.83;;
6452;SDS011;3259;51.080;13.712;2023-06-14T09:54:00;1.75;;;1.65;;
6452;SDS011;3259;51.080;13.712;2023-06-14T09:56:51;1.95;;;1.73;;
6452;SDS011;3259;51.080;13.712;2023-06-14T09:59:41;2.03;;;1.92;;
6452;SDS011;3259;51.080;13.712;2023-06-14T10:02:36;2.35;;;2.15;;
6452;SDS011;3259;51.080;13.712;2023-06-14T10:05:25;1.90;;;1.80;;
6452;SDS011;3259;51.080;13.712;2023-06-14T10:08:18;1.70;;;1.60;;
6452;SDS011;3259;51.080;13.712;2023-06-14T10:11:12;2.28;;;1.70;;
6452;SDS011;3259;51.080;13.712;2023-06-14T10:14:03;2.28;;;1.45;;
6452;SDS011;3259;51.080;13.712;2023-06-14T10:16:55;1.40;;;1.30;;
6452;SDS011;3259;51.080;13.712;2023-06-14T10:19:50;2.85;;;1.65;;
6452;SDS011;3259;51.080;13.712;2023-06-14T10:22:43;2.33;;;2.13;;
6452;SDS011;3259;51.080;13.712;2023-06-14T10:25:37;1.70;;;1.60;;
6452;SDS011;3259;51.080;13.712;2023-06-14T10:28:27;2.30;;;1.98;;
6452;SDS011;3259;51.080;13.712;2023-06-14T10:31:17;1.42;;;1.30;;
6452;SDS011;3259;51.080;13.712;2023-06-14T10:34:07;1.60;;;1.50;;
6452;SDS011;3259;51.080;13.712;2023-06-14T10:37:02;1.00;;;1.00;;
6452;SDS011;3259;51.080;13.712;2023-06-14T10:39:53;3.40;;;1.88;;
6452;SDS011;3259;51.080;13.712;2023-06-14T10:42:41;1.70;;;1.60;;
6452;SDS011;3259;51.080;13.712;2023-06-14T10:45:48;2.28;;;1.70;;
6452;SDS011;3259;51.080;13.712;2023-06-14T10:49:00;2.03;;;1.92;;
6452;SDS011;3259;51.080;13.712;2023-06-14T10:51:50;2.10;;;2.00;;
6452;SDS011;3259;51.080;13.712;2023-06-14T10:54:47;1.70;;;1.50;;
6452;SDS011;3259;51.080;13.712;2023-06-14T10:57:59;1.67;;;1.58;;
6452;SDS011;3259;51.080;13.712;2023-06-14T11:00:51;2.10;;;1.67;;
6452;SDS011;3259;51.080;13.712;2023-06-14T11:03:50;2.70;;;1.70;;
6452;SDS011;3259;51.080;13.712;2023-06-14T11:06:46;2.30;;;2.20;;
6452;SDS011;3259;51.080;13.712;2023-06-14T11:12:56;2.53;;;1.88;;
6452;SDS011;3259;51.080;13.712;2023-06-14T11:15:46;2.85;;;2.00;;
6452;SDS011;3259;51.080;13.712;2023-06-14T11:18:41;2.55;;;1.88;;
6452;SDS011;3259;51.080;13.712;2023-06-14T11:21:31;2.25;;;2.15;;
6452;SDS011;3259;51.080;13.712;2023-06-14T11:24:20;2.28;;;2.15;;
6452;SDS011;3259;51.080;13.712;2023-06-14T11:27:10;2.50;;;2.00;;
6452;SDS011;3259;51.080;13.712;2023-06-14T11:29:59;4.97;;;2.03;;
6452;SDS011;3259;51.080;13.712;2023-06-14T11:32:49;2.40;;;1.95;;
6452;SDS011;3259;51.080;13.712;2023-06-14T11:35:45;1.80;;;1.70;;
6452;SDS011;3259;51.080;13.712;2023-06-14T11:38:35;2.03;;;1.77;;
6452;SDS011;3259;51.080;13.712;2023-06-14T11:41:24;3.15;;;1.90;;
6452;SDS011;3259;51.080;13.712;2023-06-14T11:44:13;2.45;;;1.63;;
6452;SDS011;3259;51.080;13.712;2023-06-14T11:47:03;1.63;;;1.63;;
6452;SDS011;3259;51.080;13.712;2023-06-14T11:49:52;2.13;;;1.92;;
6452;SDS011;3259;51.080;13.712;2023-06-14T11:52:42;1.70;;;1.58;;
6452;SDS011;3259;51.080;13.712;2023-06-14T11:55:35;3.38;;;1.77;;
6452;SDS011;3259;51.080;13.712;2023-06-14T11:58:25;2.88;;;1.65;;
6452;SDS011;3259;51.080;13.712;2023-06-14T12:01:15;1.55;;;1.52;;
6452;SDS011;3259;51.080;13.712;2023-06-14T12:04:04;3.33;;;2.05;;
6452;SDS011;3259;51.080;13.712;2023-06-14T12:06:53;4.40;;;1.67;;
6452;SDS011;3259;51.080;13.712;2023-06-14T12:10:03;1.92;;;1.83;;
6452;SDS011;3259;51.080;13.712;2023-06-14T12:12:56;3.67;;;1.83;;
6452;SDS011;3259;51.080;13.712;2023-06-14T12:15:53;4.32;;;1.70;;
6452;SDS011;3259;51.080;13.712;2023-06-14T12:18:43;1.67;;;1.52;;
6452;SDS011;3259;51.080;13.712;2023-06-14T12:21:32;1.70;;;1.63;;
6452;SDS011;3259;51.080;13.712;2023-06-14T12:24:23;1.98;;;1.88;;
6452;SDS011;3259;51.080;13.712;2023-06-14T12:27:18;2.10;;;2.00;;
6452;SDS011;3259;51.080;13.712;2023-06-14T12:30:10;2.60;;;1.92;;
6452;SDS011;3259;51.080;13.712;2023-06-14T12:33:01;2.55;;;2.35;;
6452;SDS011;3259;51.080;13.712;2023-06-14T12:35:50;3.72;;;2.05;;
6452;SDS011;3259;51.080;13.712;2023-06-14T12:38:39;2.75;;;2.35;;
6452;SDS011;3259;51.080;13.712;2023-06-14T12:41:28;2.53;;;2.20;;
6452;SDS011;3259;51.080;13.712;2023-06-14T12:44:18;2.40;;;2.20;;
6452;SDS011;3259;51.080;13.712;2023-06-14T12:47:07;3.15;;;2.42;;
6452;SDS011;3259;51.080;13.712;2023-06-14T12:49:56;2.00;;;1.90;;
6452;SDS011;3259;51.080;13.712;2023-06-14T12:52:45;2.20;;;2.10;;
6452;SDS011;3259;51.080;13.712;2023-06-14T12:55:33;2.17;;;1.98;;
6452;SDS011;3259;51.080;13.712;2023-06-14T12:58:22;2.35;;;2.25;;
6452;SDS011;3259;51.080;13.712;2023-06-14T13:01:12;3.92;;;1.92;;
6452;SDS011;3259;51.080;13.712;2023-06-14T13:04:01;3.92;;;2.15;;
6452;SDS011;3259;51.080;13.712;2023-06-14T13:06:50;1.65;;;1.55;;
6452;SDS011;3259;51.080;13.712;2023-06-14T13:09:39;1.98;;;1.45;;
6452;SDS011;3259;51.080;13.712;2023-06-14T13:12:28;1.65;;;1.58;;
6452;SDS011;3259;51.080;13.712;2023-06-14T13:15:16;9.98;;;2.30;;
6452;SDS011;3259;51.080;13.712;2023-06-14T13:18:07;2.65;;;1.40;;
6452;SDS011;3259;51.080;13.712;2023-06-14T13:20:56;2.33;;;1.88;;
6452;SDS011;3259;51.080;13.712;2023-06-14T13:23:44;3.47;;;1.75;;
6452;SDS011;3259;51.080;13.712;2023-06-14T13:26:33;2.22;;;2.03;;
6452;SDS011;3259;51.080;13.712;2023-06-14T13:29:23;7.22;;;2.45;;
6452;SDS011;3259;51.080;13.712;2023-06-14T13:32:11;2.10;;;1.92;;
6452;SDS011;3259;51.080;13.712;2023-06-14T13:35:02;2.25;;;1.75;;
6452;SDS011;3259;51.080;13.712;2023-06-14T13:37:51;3.53;;;2.10;;
6452;SDS011;3259;51.080;13.712;2023-06-14T13:40:40;2.03;;;1.83;;
6452;SDS011;3259;51.080;13.712;2023-06-14T13:43:28;6.50;;;2.25;;
6452;SDS011;3259;51.080;13.712;2023-06-14T13:46:17;16.75;;;3.00;;
6452;SDS011;3259;51.080;13.712;2023-06-14T13:49:24;3.05;;;2.17;;
6452;SDS011;3259;51.080;13.712;2023-06-14T13:52:33;31.33;;;3.10;;
6452;SDS011;3259;51.080;13.712;2023-06-14T13:55:40;49.22;;;4.75;;
6452;SDS011;3259;51.080;13.712;2023-06-14T13:58:46;30.13;;;3.42;;
6452;SDS011;3259;51.080;13.712;2023-06-14T14:01:52;28.95;;;2.47;;
6452;SDS011;3259;51.080;13.712;2023-06-14T14:04:59;12.10;;;2.30;;
6452;SDS011;3259;51.080;13.712;2023-06-14T14:08:06;5.00;;;1.38;;
6452;SDS011;3259;51.080;13.712;2023-06-14T14:11:13;2.80;;;1.80;;
6452;SDS011;3259;51.080;13.712;2023-06-14T14:14:20;1.42;;;1.13;;
6452;SDS011;3259;51.080;13.712;2023-06-14T14:17:27;2.40;;;1.45;;
6452;SDS011;3259;51.080;13.712;2023-06-14T14:20:34;6.72;;;1.70;;
6452;SDS011;3259;51.080;13.712;2023-06-14T14:23:41;2.88;;;1.40;;
6452;SDS011;3259;51.080;13.712;2023-06-14T14:26:48;1.23;;;1.23;;
6452;SDS011;3259;51.080;13.712;2023-06-14T14:29:57;5.93;;;1.67;;
6452;SDS011;3259;51.080;13.712;2023-06-14T14:32:48;1.38;;;1.27;;
6452;SDS011;3259;51.080;13.712;2023-06-14T14:35:37;5.47;;;1.63;;
6452;SDS011;3259;51.080;13.712;2023-06-14T14:38:25;1.73;;;1.63;;
6452;SDS011;3259;51.080;13.712;2023-06-14T14:41:15;2.30;;;2.10;;
6452;SDS011;3259;51.080;13.712;2023-06-14T14:44:04;1.92;;;1.48;;
6452;SDS011;3259;51.080;13.712;2023-06-14T14:46:53;4.13;;;1.70;;
6452;SDS011;3259;51.080;13.712;2023-06-14T14:49:42;1.50;;;1.40;;
6452;SDS011;3259;51.080;13.712;2023-06-14T14:52:31;5.85;;;1.63;;
6452;SDS011;3259;51.080;13.712;2023-06-14T14:55:20;1.27;;;1.23;;
6452;SDS011;3259;51.080;13.712;2023-06-14T14:58:11;2.10;;;1.45;;
6452;SDS011;3259;51.080;13.712;2023-06-14T15:01:03;1.77;;;1.60;;
6452;SDS011;3259;51.080;13.712;2023-06-14T15:03:54;1.63;;;1.52;;
6452;SDS011;3259;51.080;13.712;2023-06-14T15:06:46;1.48;;;1.38;;
6452;SDS011;3259;51.080;13.712;2023-06-14T15:09:34;1.92;;;1.70;;
6452;SDS011;3259;51.080;13.712;2023-06-14T15:12:23;2.33;;;1.60;;
6452;SDS011;3259;51.080;13.712;2023-06-14T15:15:16;4.78;;;2.00;;
6452;SDS011;3259;51.080;13.712;2023-06-14T15:18:04;4.15;;;1.77;;
6452;SDS011;3259;51.080;13.712;2023-06-14T15:20:53;1.73;;;1.63;;
6452;SDS011;3259;51.080;13.712;2023-06-14T15:23:43;3.00;;;1.60;;
6452;SDS011;3259;51.080;13.712;2023-06-14T15:26:32;3.10;;;1.65;;
6452;SDS011;3259;51.080;13.712;2023-06-14T15:29:20;1.83;;;1.70;;
6452;SDS011;3259;51.080;13.712;2023-06-14T15:32:12;1.63;;;1.52;;
6452;SDS011;3259;51.080;13.712;2023-06-14T15:35:01;1.98;;;1.85;;
6452;SDS011;3259;51.080;13.712;2023-06-14T15:37:50;1.92;;;1.83;;
6452;SDS011;3259;51.080;13.712;2023-06-14T15:40:42;2.20;;;2.10;;
6452;SDS011;3259;51.080;13.712;2023-06-14T15:43:32;2.25;;;2.15;;
6452;SDS011;3259;51.080;13.712;2023-06-14T15:46:22;2.22;;;2.00;;
6452;SDS011;3259;51.080;13.712;2023-06-14T15:49:13;3.47;;;2.00;;
6452;SDS011;3259;51.080;13.712;2023-06-14T15:52:01;3.47;;;2.00;;
6452;SDS011;3259;51.080;13.712;2023-06-14T15:54:50;2.25;;;2.03;;
6452;SDS011;3259;51.080;13.712;2023-06-14T15:57:39;2.50;;;2.30;;
6452;SDS011;3259;51.080;13.712;2023-06-14T16:00:28;1.98;;;1.67;;
6452;SDS011;3259;51.080;13.712;2023-06-14T16:03:17;2.92;;;2.72;;
6452;SDS011;3259;51.080;13.712;2023-06-14T16:06:07;2.10;;;2.00;;
6452;SDS011;3259;51.080;13.712;2023-06-14T16:08:56;2.08;;;1.88;;
6452;SDS011;3259;51.080;13.712;2023-06-14T16:11:44;2.15;;;1.90;;
6452;SDS011;3259;51.080;13.712;2023-06-14T16:14:33;2.22;;;2.08;;
6452;SDS011;3259;51.080;13.712;2023-06-14T16:17:22;2.25;;;2.05;;
6452;SDS011;3259;51.080;13.712;2023-06-14T16:20:13;2.35;;;2.13;;
6452;SDS011;3259;51.080;13.712;2023-06-14T16:23:03;3.60;;;2.42;;
6452;SDS011;3259;51.080;13.712;2023-06-14T16:25:52;4.53;;;2.55;;
6452;SDS011;3259;51.080;13.712;2023-06-14T16:28:41;7.20;;;2.75;;
6452;SDS011;3259;51.080;13.712;2023-06-14T16:31:30;2.30;;;2.20;;
6452;SDS011;3259;51.080;13.712;2023-06-14T16:34:19;3.15;;;2.60;;
6452;SDS011;3259;51.080;13.712;2023-06-14T16:37:08;2.78;;;2.50;;
6452;SDS011;3259;51.080;13.712;2023-06-14T16:39:58;2.88;;;2.50;;
6452;SDS011;3259;51.080;13.712;2023-06-14T16:42:47;4.18;;;2.45;;
6452;SDS011;3259;51.080;13.712;2023-06-14T16:45:38;5.43;;;2.30;;
6452;SDS011;3259;51.080;13.712;2023-06-14T16:48:27;3.45;;;2.90;;
6452;SDS011;3259;51.080;13.712;2023-06-14T16:51:19;3.03;;;2.45;;
6452;SDS011;3259;51.080;13.712;2023-06-14T16:54:09;4.00;;;3.58;;
6452;SDS011;3259;51.080;13.712;2023-06-14T16:56:59;6.47;;;3.17;;
6452;SDS011;3259;51.080;13.712;2023-06-14T16:59:47;5.07;;;2.90;;
6452;SDS011;3259;51.080;13.712;2023-06-14T17:02:36;3.47;;;3.17;;
6452;SDS011;3259;51.080;13.712;2023-06-14T17:05:25;4.75;;;2.90;;
6452;SDS011;3259;51.080;13.712;2023-06-14T17:08:14;3.20;;;2.92;;
6452;SDS011;3259;51.080;13.712;2023-06-14T17:11:03;3.20;;;2.88;;
6452;SDS011;3259;51.080;13.712;2023-06-14T17:13:54;3.53;;;3.22;;
6452;SDS011;3259;51.080;13.712;2023-06-14T17:16:43;3.38;;;2.90;;
6452;SDS011;3259;51.080;13.712;2023-06-14T17:19:32;3.47;;;2.80;;
6452;SDS011;3259;51.080;13.712;2023-06-14T17:22:20;2.83;;;2.63;;
6452;SDS011;3259;51.080;13.712;2023-06-14T17:25:09;2.92;;;2.47;;
6452;SDS011;3259;51.080;13.712;2023-06-14T17:27:58;4.82;;;3.20;;